Airfield :
LOGIN :

Register | Disclaimer

   EN    FR    IT 

 










Legend :    VFR   Marginal VFR   IFR   Intensive IFR   Very Intensive IFR
Visi :
Ceiling :
>= 8 km
>= 3000ft
5 to 8 km
1000 to 3000 ft
1500m to 5 km
500 to 1000 ft
800 to 1500m
200 to 500 ft
< 800m
< 200 ft
Symbols :   Thunderstorms  Fog  Heavy snow  Heavy precipitations  Wind > 20 kt
SIGMETs :     Misc.  Thunderstorms  Icing  Turbulence  Mountain Waves  Volcanic Ashes






- Airport Elevation : 15 ft
- IATA code : BHD


EGAC - George Best Belfast City

CURRENT METAR :
  • 130420Z AUTO 25007KT 210V270 6000 -RA SCT014/// BKN019/// 05/04 Q0972 RERA

EXPIRED METARs :
  • 130350Z AUTO 25007KT 9999 -RA SCT027/// BKN041/// 05/04 Q0972
  • 130320Z AUTO 24011KT 9999 -RA FEW016/// SCT027/// BKN044/// 05/04 Q0972
  • 130250Z AUTO 25009KT 9999 SCT014/// BKN019/// 05/04 Q0972
  • 130220Z AUTO 21007KT 170V230 9999 BKN011/// BKN017/// OVC022/// 05/04 Q0971
  • 130150Z AUTO 21008KT 190V260 9999 BKN011/// 05/04 Q0971

Expired Forecast.
ATIS : +44 02890 935 124



MET'MAP, your aeronautical weather chart ! - Copyright ORBIFLY December 2007 - Disclaimer

ORBIFLY MET'MAP TEAM :

Programming & Development : Alexandra Zaïnal
Concept & original design : Baudouin d'Aumeries
Assistance for programming : Marc-Olivier Méhu
Technical & hardware support : Manuel Goepfert

Contact : metmap@orbifly.com




SOURCES & CREDITS :

   NOAA